sensor_id;sensor_type;location;lat;lon;timestamp;pressure;altitude;pressure_sealevel;temperature;humidity
4767;BME280;2397;53.576;9.746;2023-04-06T00:00:08;102034.94;;;2.05;72.34
4767;BME280;2397;53.576;9.746;2023-04-06T00:02:36;102029.84;;;2.02;72.25
4767;BME280;2397;53.576;9.746;2023-04-06T00:05:03;102029.25;;;1.96;72.63
4767;BME280;2397;53.576;9.746;2023-04-06T00:07:29;102030.00;;;1.99;72.12
4767;BME280;2397;53.576;9.746;2023-04-06T00:09:56;102031.41;;;2.06;72.38
4767;BME280;2397;53.576;9.746;2023-04-06T00:12:22;102025.50;;;2.03;71.90
4767;BME280;2397;53.576;9.746;2023-04-06T00:14:49;102030.69;;;2.03;72.21
4767;BME280;2397;53.576;9.746;2023-04-06T00:17:16;102020.03;;;1.89;72.84
4767;BME280;2397;53.576;9.746;2023-04-06T00:19:42;102016.66;;;1.87;72.79
4767;BME280;2397;53.576;9.746;2023-04-06T00:22:09;102020.09;;;1.87;72.48
4767;BME280;2397;53.576;9.746;2023-04-06T00:24:36;102020.38;;;1.81;72.57
4767;BME280;2397;53.576;9.746;2023-04-06T00:27:02;102012.75;;;1.77;72.40
4767;BME280;2397;53.576;9.746;2023-04-06T00:29:29;102015.22;;;1.80;72.62
4767;BME280;2397;53.576;9.746;2023-04-06T00:31:55;102009.94;;;1.81;73.09
4767;BME280;2397;53.576;9.746;2023-04-06T00:34:22;102009.22;;;1.78;72.29
4767;BME280;2397;53.576;9.746;2023-04-06T00:36:49;102011.69;;;1.81;72.88
4767;BME280;2397;53.576;9.746;2023-04-06T00:39:15;102010.19;;;1.75;72.63
4767;BME280;2397;53.576;9.746;2023-04-06T00:41:48;102008.50;;;1.74;72.96
4767;BME280;2397;53.576;9.746;2023-04-06T00:44:16;101998.88;;;1.76;73.14
4767;BME280;2397;53.576;9.746;2023-04-06T00:46:43;101993.66;;;1.76;72.41
4767;BME280;2397;53.576;9.746;2023-04-06T00:49:10;101996.38;;;1.73;72.83
4767;BME280;2397;53.576;9.746;2023-04-06T00:51:37;101998.22;;;1.71;72.89
4767;BME280;2397;53.576;9.746;2023-04-06T00:54:04;101991.34;;;1.70;73.17
4767;BME280;2397;53.576;9.746;2023-04-06T00:56:33;101988.88;;;1.67;72.76
4767;BME280;2397;53.576;9.746;2023-04-06T00:59:00;101989.78;;;1.66;72.78
4767;BME280;2397;53.576;9.746;2023-04-06T01:01:27;101985.81;;;1.58;72.97
4767;BME280;2397;53.576;9.746;2023-04-06T01:03:58;101986.31;;;1.46;72.99
4767;BME280;2397;53.576;9.746;2023-04-06T01:06:25;101981.81;;;1.49;73.08
4767;BME280;2397;53.576;9.746;2023-04-06T01:08:57;101980.13;;;1.48;73.21
4767;BME280;2397;53.576;9.746;2023-04-06T01:11:25;101978.41;;;1.47;72.92
4767;BME280;2397;53.576;9.746;2023-04-06T01:13:53;101977.72;;;1.44;73.73
4767;BME280;2397;53.576;9.746;2023-04-06T01:16:25;101977.72;;;1.44;73.33
4767;BME280;2397;53.576;9.746;2023-04-06T01:19:11;101977.13;;;1.37;73.58
4767;BME280;2397;53.576;9.746;2023-04-06T01:21:41;101971.72;;;1.42;73.40
4767;BME280;2397;53.576;9.746;2023-04-06T01:24:23;101962.16;;;1.42;73.47
4767;BME280;2397;53.576;9.746;2023-04-06T01:26:59;101965.88;;;1.37;73.63
4767;BME280;2397;53.576;9.746;2023-04-06T01:29:35;101963.03;;;1.43;73.42
4767;BME280;2397;53.576;9.746;2023-04-06T01:32:04;101961.53;;;1.37;73.02
4767;BME280;2397;53.576;9.746;2023-04-06T01:34:35;101961.88;;;1.28;73.72
4767;BME280;2397;53.576;9.746;2023-04-06T01:37:04;101962.97;;;1.23;73.38
4767;BME280;2397;53.576;9.746;2023-04-06T01:39:30;101962.91;;;1.24;74.06
4767;BME280;2397;53.576;9.746;2023-04-06T01:42:00;101962.00;;;1.25;73.94
4767;BME280;2397;53.576;9.746;2023-04-06T01:44:27;101956.81;;;1.25;73.37
4767;BME280;2397;53.576;9.746;2023-04-06T01:47:05;101958.63;;;1.23;74.40
4767;BME280;2397;53.576;9.746;2023-04-06T01:49:32;101957.19;;;1.16;74.36
4767;BME280;2397;53.576;9.746;2023-04-06T01:51:59;101959.78;;;1.16;73.74
4767;BME280;2397;53.576;9.746;2023-04-06T01:54:25;101955.69;;;1.11;74.24
4767;BME280;2397;53.576;9.746;2023-04-06T01:57:03;101956.41;;;1.14;74.79
4767;BME280;2397;53.576;9.746;2023-04-06T01:59:49;101954.72;;;1.13;74.64
4767;BME280;2397;53.576;9.746;2023-04-06T02:02:28;101950.31;;;1.15;74.74
4767;BME280;2397;53.576;9.746;2023-04-06T02:05:01;101951.03;;;1.19;74.73
4767;BME280;2397;53.576;9.746;2023-04-06T02:07:28;101945.28;;;1.11;75.24
4767;BME280;2397;53.576;9.746;2023-04-06T02:09:55;101939.06;;;1.15;75.27
4767;BME280;2397;53.576;9.746;2023-04-06T02:12:31;101943.28;;;1.17;74.88
4767;BME280;2397;53.576;9.746;2023-04-06T02:14:58;101936.44;;;1.15;74.72
4767;BME280;2397;53.576;9.746;2023-04-06T02:17:25;101942.09;;;1.04;75.41
4767;BME280;2397;53.576;9.746;2023-04-06T02:19:51;101934.94;;;1.09;75.65
4767;BME280;2397;53.576;9.746;2023-04-06T02:22:18;101937.31;;;1.15;75.35
4767;BME280;2397;53.576;9.746;2023-04-06T02:24:44;101936.34;;;1.18;75.36
4767;BME280;2397;53.576;9.746;2023-04-06T02:27:12;101936.63;;;1.10;75.95
4767;BME280;2397;53.576;9.746;2023-04-06T02:29:38;101936.03;;;1.04;75.85
4767;BME280;2397;53.576;9.746;2023-04-06T02:32:05;101928.97;;;1.07;75.74
4767;BME280;2397;53.576;9.746;2023-04-06T02:34:32;101930.59;;;1.10;75.30
4767;BME280;2397;53.576;9.746;2023-04-06T02:36:59;101933.97;;;1.12;75.15
4767;BME280;2397;53.576;9.746;2023-04-06T02:39:25;101930.59;;;1.10;75.49
4767;BME280;2397;53.576;9.746;2023-04-06T02:41:52;101931.50;;;1.09;75.43
4767;BME280;2397;53.576;9.746;2023-04-06T02:44:23;101928.19;;;1.05;75.68
4767;BME280;2397;53.576;9.746;2023-04-06T02:46:49;101927.59;;;0.99;75.92
4767;BME280;2397;53.576;9.746;2023-04-06T02:49:17;101932.31;;;0.89;75.68
4767;BME280;2397;53.576;9.746;2023-04-06T02:51:44;101925.41;;;0.88;76.49
4767;BME280;2397;53.576;9.746;2023-04-06T02:54:18;101936.06;;;0.82;76.04
4767;BME280;2397;53.576;9.746;2023-04-06T02:56:44;101924.69;;;0.85;76.14
4767;BME280;2397;53.576;9.746;2023-04-06T02:59:11;101929.03;;;0.84;75.95
4767;BME280;2397;53.576;9.746;2023-04-06T03:01:43;101927.28;;;0.85;76.54
4767;BME280;2397;53.576;9.746;2023-04-06T03:04:09;101931.75;;;0.81;76.46
4767;BME280;2397;53.576;9.746;2023-04-06T03:06:38;101938.34;;;0.90;77.18
4767;BME280;2397;53.576;9.746;2023-04-06T03:09:15;101930.97;;;1.01;77.43
4767;BME280;2397;53.576;9.746;2023-04-06T03:11:43;101932.34;;;1.09;77.90
4767;BME280;2397;53.576;9.746;2023-04-06T03:14:09;101929.63;;;1.12;77.47
4767;BME280;2397;53.576;9.746;2023-04-06T03:16:36;101924.72;;;1.26;77.85
4767;BME280;2397;53.576;9.746;2023-04-06T03:19:03;101926.91;;;1.35;78.42
4767;BME280;2397;53.576;9.746;2023-04-06T03:21:33;101937.19;;;1.38;78.14
4767;BME280;2397;53.576;9.746;2023-04-06T03:24:00;101932.66;;;1.43;78.40
4767;BME280;2397;53.576;9.746;2023-04-06T03:26:26;101924.19;;;1.58;79.51
4767;BME280;2397;53.576;9.746;2023-04-06T03:28:53;101928.44;;;1.61;78.69
4767;BME280;2397;53.576;9.746;2023-04-06T03:31:26;101935.44;;;1.59;78.62
4767;BME280;2397;53.576;9.746;2023-04-06T03:33:59;101942.34;;;1.60;78.12
4767;BME280;2397;53.576;9.746;2023-04-06T03:36:30;101939.66;;;1.61;78.65
4767;BME280;2397;53.576;9.746;2023-04-06T03:38:57;101935.97;;;1.67;78.13
4767;BME280;2397;53.576;9.746;2023-04-06T03:41:24;101934.34;;;1.64;78.82
4767;BME280;2397;53.576;9.746;2023-04-06T03:43:57;101938.91;;;1.59;78.56
4767;BME280;2397;53.576;9.746;2023-04-06T03:46:24;101937.34;;;1.55;79.09
4767;BME280;2397;53.576;9.746;2023-04-06T03:48:53;101933.75;;;1.58;79.24
4767;BME280;2397;53.576;9.746;2023-04-06T03:51:22;101936.56;;;1.53;78.42
4767;BME280;2397;53.576;9.746;2023-04-06T03:53:48;101935.00;;;1.49;78.34
4767;BME280;2397;53.576;9.746;2023-04-06T03:56:15;101930.91;;;1.44;78.08
4767;BME280;2397;53.576;9.746;2023-04-06T03:58:42;101938.63;;;1.45;78.06
4767;BME280;2397;53.576;9.746;2023-04-06T04:01:10;101933.38;;;1.47;77.21
4767;BME280;2397;53.576;9.746;2023-04-06T04:03:37;101942.28;;;1.41;77.01
4767;BME280;2397;53.576;9.746;2023-04-06T04:06:04;101937.59;;;1.29;77.26
4767;BME280;2397;53.576;9.746;2023-04-06T04:08:31;101932.25;;;1.32;77.62
4767;BME280;2397;53.576;9.746;2023-04-06T04:10:57;101938.75;;;1.22;77.19
4767;BME280;2397;53.576;9.746;2023-04-06T04:13:24;101940.69;;;1.17;76.96
4767;BME280;2397;53.576;9.746;2023-04-06T04:15:51;101937.59;;;1.08;76.83
4767;BME280;2397;53.576;9.746;2023-04-06T04:18:17;101934.31;;;1.04;77.28
4767;BME280;2397;53.576;9.746;2023-04-06T04:20:44;101941.34;;;1.01;76.84
4767;BME280;2397;53.576;9.746;2023-04-06T04:23:12;101946.81;;;0.95;77.60
4767;BME280;2397;53.576;9.746;2023-04-06T04:25:38;101949.81;;;0.84;77.29
4767;BME280;2397;53.576;9.746;2023-04-06T04:28:05;101944.69;;;0.83;76.91
4767;BME280;2397;53.576;9.746;2023-04-06T04:30:32;101946.34;;;0.85;77.67
4767;BME280;2397;53.576;9.746;2023-04-06T04:32:58;101940.47;;;0.80;77.44
4767;BME280;2397;53.576;9.746;2023-04-06T04:35:26;101949.00;;;0.84;76.86
4767;BME280;2397;53.576;9.746;2023-04-06T04:37:53;101942.03;;;0.84;76.47
4767;BME280;2397;53.576;9.746;2023-04-06T04:40:19;101947.22;;;0.84;76.67
4767;BME280;2397;53.576;9.746;2023-04-06T04:42:51;101942.78;;;0.88;76.71
4767;BME280;2397;53.576;9.746;2023-04-06T04:45:29;101944.41;;;0.90;76.41
4767;BME280;2397;53.576;9.746;2023-04-06T04:48:00;101947.28;;;0.83;77.18
4767;BME280;2397;53.576;9.746;2023-04-06T04:50:35;101946.69;;;0.76;77.29
4767;BME280;2397;53.576;9.746;2023-04-06T04:53:01;101949.00;;;0.84;76.80
4767;BME280;2397;53.576;9.746;2023-04-06T04:55:28;101950.84;;;0.80;77.18
4767;BME280;2397;53.576;9.746;2023-04-06T04:57:58;101950.47;;;0.68;77.13
4767;BME280;2397;53.576;9.746;2023-04-06T05:00:42;101951.44;;;0.65;77.18
4767;BME280;2397;53.576;9.746;2023-04-06T05:03:14;101952.00;;;0.73;76.88
4767;BME280;2397;53.576;9.746;2023-04-06T05:05:45;101944.16;;;0.75;77.43
4767;BME280;2397;53.576;9.746;2023-04-06T05:08:13;101952.00;;;0.73;77.21
4767;BME280;2397;53.576;9.746;2023-04-06T05:10:45;101943.31;;;0.74;77.38
4767;BME280;2397;53.576;9.746;2023-04-06T05:13:12;101948.63;;;0.71;76.75
4767;BME280;2397;53.576;9.746;2023-04-06T05:15:39;101945.78;;;0.77;76.63
4767;BME280;2397;53.576;9.746;2023-04-06T05:18:23;101954.41;;;0.78;77.05
4767;BME280;2397;53.576;9.746;2023-04-06T05:20:49;101944.75;;;0.81;76.41
4767;BME280;2397;53.576;9.746;2023-04-06T05:23:22;101944.63;;;0.84;76.62
4767;BME280;2397;53.576;9.746;2023-04-06T05:25:50;101945.16;;;0.92;76.57
4767;BME280;2397;53.576;9.746;2023-04-06T05:28:20;101945.97;;;0.94;76.39
4767;BME280;2397;53.576;9.746;2023-04-06T05:30:47;101941.00;;;0.88;76.68
4767;BME280;2397;53.576;9.746;2023-04-06T05:33:14;101942.56;;;0.92;76.33
4767;BME280;2397;53.576;9.746;2023-04-06T05:35:56;101941.84;;;0.89;76.89
4767;BME280;2397;53.576;9.746;2023-04-06T05:38:23;101941.75;;;0.92;76.67
4767;BME280;2397;53.576;9.746;2023-04-06T05:40:52;101940.88;;;0.91;76.63
4767;BME280;2397;53.576;9.746;2023-04-06T05:43:22;101938.81;;;0.99;76.67
4767;BME280;2397;53.576;9.746;2023-04-06T05:45:53;101944.16;;;0.96;76.93
4767;BME280;2397;53.576;9.746;2023-04-06T05:48:19;101945.78;;;0.99;76.75
4767;BME280;2397;53.576;9.746;2023-04-06T05:50:50;101941.34;;;1.01;77.16
4767;BME280;2397;53.576;9.746;2023-04-06T05:53:20;101940.38;;;1.03;77.04
4767;BME280;2397;53.576;9.746;2023-04-06T05:55:52;101940.38;;;1.03;77.19
4767;BME280;2397;53.576;9.746;2023-04-06T05:58:20;101941.25;;;1.04;77.38
4767;BME280;2397;53.576;9.746;2023-04-06T06:00:49;101945.59;;;1.03;77.56
4767;BME280;2397;53.576;9.746;2023-04-06T06:03:19;101941.28;;;1.02;77.70
4767;BME280;2397;53.576;9.746;2023-04-06T06:05:50;101943.66;;;1.08;77.61
4767;BME280;2397;53.576;9.746;2023-04-06T06:08:24;101940.16;;;1.09;76.93
4767;BME280;2397;53.576;9.746;2023-04-06T06:10:51;101934.59;;;1.18;77.58
4767;BME280;2397;53.576;9.746;2023-04-06T06:13:21;101940.09;;;1.31;76.83
4767;BME280;2397;53.576;9.746;2023-04-06T06:15:49;101940.06;;;1.52;75.92
4767;BME280;2397;53.576;9.746;2023-04-06T06:18:18;101938.31;;;1.73;74.80
4767;BME280;2397;53.576;9.746;2023-04-06T06:20:46;101947.19;;;2.07;71.95
4767;BME280;2397;53.576;9.746;2023-04-06T06:23:14;101939.59;;;2.21;71.40
4767;BME280;2397;53.576;9.746;2023-04-06T06:25:40;101940.09;;;2.29;71.80
4767;BME280;2397;53.576;9.746;2023-04-06T06:28:08;101940.47;;;2.40;71.39
4767;BME280;2397;53.576;9.746;2023-04-06T06:30:35;101940.78;;;2.70;67.96
4767;BME280;2397;53.576;9.746;2023-04-06T06:33:01;101939.78;;;2.91;66.70
4767;BME280;2397;53.576;9.746;2023-04-06T06:35:29;101938.44;;;3.18;64.67
4767;BME280;2397;53.576;9.746;2023-04-06T06:37:57;101930.53;;;3.71;61.21
4767;BME280;2397;53.576;9.746;2023-04-06T06:40:26;101938.22;;;3.74;62.66
4767;BME280;2397;53.576;9.746;2023-04-06T06:42:54;101942.72;;;3.70;63.55
4767;BME280;2397;53.576;9.746;2023-04-06T06:45:29;101939.91;;;3.75;65.45
4767;BME280;2397;53.576;9.746;2023-04-06T06:47:56;101941.56;;;3.93;64.07
4767;BME280;2397;53.576;9.746;2023-04-06T06:50:23;101936.13;;;4.13;62.68
4767;BME280;2397;53.576;9.746;2023-04-06T06:52:49;101940.53;;;4.28;61.13
4767;BME280;2397;53.576;9.746;2023-04-06T06:55:16;101938.53;;;4.33;62.87
4767;BME280;2397;53.576;9.746;2023-04-06T06:57:45;101937.28;;;4.55;59.33
4767;BME280;2397;53.576;9.746;2023-04-06T07:00:15;101933.66;;;4.73;58.67
4767;BME280;2397;53.576;9.746;2023-04-06T07:02:43;101929.59;;;4.83;60.32
4767;BME280;2397;53.576;9.746;2023-04-06T07:05:10;101933.13;;;4.98;57.74
4767;BME280;2397;53.576;9.746;2023-04-06T07:07:53;101922.63;;;5.13;56.05
4767;BME280;2397;53.576;9.746;2023-04-06T07:10:20;101923.06;;;5.35;54.91
4767;BME280;2397;53.576;9.746;2023-04-06T07:12:46;101923.69;;;5.54;53.30
4767;BME280;2397;53.576;9.746;2023-04-06T07:15:13;101928.84;;;5.56;54.66
4767;BME280;2397;53.576;9.746;2023-04-06T07:17:39;101930.72;;;5.68;54.31
4767;BME280;2397;53.576;9.746;2023-04-06T07:20:12;101927.97;;;5.85;53.67
4767;BME280;2397;53.576;9.746;2023-04-06T07:22:39;101922.66;;;6.00;53.36
4767;BME280;2397;53.576;9.746;2023-04-06T07:25:06;101916.22;;;6.06;53.58
4767;BME280;2397;53.576;9.746;2023-04-06T07:27:33;101921.47;;;6.20;52.55
4767;BME280;2397;53.576;9.746;2023-04-06T07:30:00;101918.59;;;6.37;52.91
4767;BME280;2397;53.576;9.746;2023-04-06T07:32:27;101911.50;;;6.53;52.08
4767;BME280;2397;53.576;9.746;2023-04-06T07:34:54;101913.88;;;6.70;49.01
4767;BME280;2397;53.576;9.746;2023-04-06T07:37:20;101899.91;;;6.96;48.80
4767;BME280;2397;53.576;9.746;2023-04-06T07:39:47;101906.25;;;7.06;48.30
4767;BME280;2397;53.576;9.746;2023-04-06T07:42:15;101904.91;;;7.13;48.38
4767;BME280;2397;53.576;9.746;2023-04-06T07:44:42;101906.75;;;7.38;48.76
4767;BME280;2397;53.576;9.746;2023-04-06T07:47:10;101909.06;;;7.42;47.81
4767;BME280;2397;53.576;9.746;2023-04-06T07:49:36;101904.66;;;7.55;49.24
4767;BME280;2397;53.576;9.746;2023-04-06T07:52:04;101896.28;;;7.63;47.93
4767;BME280;2397;53.576;9.746;2023-04-06T07:54:31;101904.06;;;7.64;47.44
4767;BME280;2397;53.576;9.746;2023-04-06T07:56:58;101895.44;;;7.87;47.63
4767;BME280;2397;53.576;9.746;2023-04-06T07:59:24;101901.53;;;7.88;47.77
4767;BME280;2397;53.576;9.746;2023-04-06T08:01:51;101900.38;;;8.04;48.40
4767;BME280;2397;53.576;9.746;2023-04-06T08:04:18;101892.44;;;8.17;46.69
4767;BME280;2397;53.576;9.746;2023-04-06T08:06:44;101882.91;;;8.28;45.79
4767;BME280;2397;53.576;9.746;2023-04-06T08:09:11;101887.47;;;8.37;47.50
4767;BME280;2397;53.576;9.746;2023-04-06T08:11:37;101889.25;;;8.49;46.40
4767;BME280;2397;53.576;9.746;2023-04-06T08:14:04;101883.44;;;8.57;45.96
4767;BME280;2397;53.576;9.746;2023-04-06T08:16:30;101892.25;;;8.68;48.77
4767;BME280;2397;53.576;9.746;2023-04-06T08:18:57;101884.69;;;8.87;45.64
4767;BME280;2397;53.576;9.746;2023-04-06T08:21:23;101878.25;;;8.91;45.94
4767;BME280;2397;53.576;9.746;2023-04-06T08:23:49;101874.03;;;9.12;45.00
4767;BME280;2397;53.576;9.746;2023-04-06T08:26:16;101874.47;;;9.06;44.60
4767;BME280;2397;53.576;9.746;2023-04-06T08:28:42;101875.03;;;9.22;45.20
4767;BME280;2397;53.576;9.746;2023-04-06T08:31:12;101878.19;;;9.38;43.65
4767;BME280;2397;53.576;9.746;2023-04-06T08:33:38;101868.63;;;9.48;43.27
4767;BME280;2397;53.576;9.746;2023-04-06T08:36:12;101866.72;;;9.61;42.66
4767;BME280;2397;53.576;9.746;2023-04-06T08:38:40;101868.66;;;9.59;42.53
4767;BME280;2397;53.576;9.746;2023-04-06T08:41:11;101863.88;;;9.64;42.87
4767;BME280;2397;53.576;9.746;2023-04-06T08:43:46;101862.44;;;9.71;42.35
4767;BME280;2397;53.576;9.746;2023-04-06T08:46:14;101864.47;;;9.79;42.13
4767;BME280;2397;53.576;9.746;2023-04-06T08:48:42;101857.75;;;9.97;41.81
4767;BME280;2397;53.576;9.746;2023-04-06T08:51:10;101851.56;;;9.98;41.25
4767;BME280;2397;53.576;9.746;2023-04-06T08:53:37;101850.59;;;9.99;41.96
4767;BME280;2397;53.576;9.746;2023-04-06T08:56:04;101848.41;;;10.04;40.95
4767;BME280;2397;53.576;9.746;2023-04-06T08:58:35;101853.94;;;10.12;40.78
4767;BME280;2397;53.576;9.746;2023-04-06T09:01:11;101845.06;;;10.02;39.86
4767;BME280;2397;53.576;9.746;2023-04-06T09:03:39;101850.25;;;10.14;41.24
4767;BME280;2397;53.576;9.746;2023-04-06T09:06:07;101842.06;;;10.28;40.40
4767;BME280;2397;53.576;9.746;2023-04-06T09:08:35;101845.78;;;10.26;40.46
4767;BME280;2397;53.576;9.746;2023-04-06T09:11:02;101840.97;;;10.31;40.82
4767;BME280;2397;53.576;9.746;2023-04-06T09:13:29;101845.53;;;10.29;40.28
4767;BME280;2397;53.576;9.746;2023-04-06T09:16:01;101847.94;;;10.32;40.53
4767;BME280;2397;53.576;9.746;2023-04-06T09:18:32;101848.19;;;10.29;41.71
4767;BME280;2397;53.576;9.746;2023-04-06T09:21:01;101845.53;;;10.40;39.72
4767;BME280;2397;53.576;9.746;2023-04-06T09:23:28;101843.09;;;10.48;39.93
4767;BME280;2397;53.576;9.746;2023-04-06T09:26:15;101838.06;;;10.45;40.30
4767;BME280;2397;53.576;9.746;2023-04-06T09:28:46;101834.72;;;10.54;40.98
4767;BME280;2397;53.576;9.746;2023-04-06T09:31:15;101833.50;;;10.58;39.43
4767;BME280;2397;53.576;9.746;2023-04-06T09:33:44;101825.22;;;10.63;40.75
4767;BME280;2397;53.576;9.746;2023-04-06T09:36:11;101827.16;;;10.50;41.10
4767;BME280;2397;53.576;9.746;2023-04-06T09:38:54;101823.50;;;10.62;40.10
4767;BME280;2397;53.576;9.746;2023-04-06T09:41:36;101803.97;;;10.53;39.46
4767;BME280;2397;53.576;9.746;2023-04-06T09:46:35;101814.13;;;10.69;40.03
4767;BME280;2397;53.576;9.746;2023-04-06T09:49:22;101808.84;;;10.69;39.49
4767;BME280;2397;53.576;9.746;2023-04-06T09:51:56;101805.59;;;10.76;37.21
4767;BME280;2397;53.576;9.746;2023-04-06T09:54:28;101806.09;;;10.91;37.07
4767;BME280;2397;53.576;9.746;2023-04-06T09:56:58;101806.84;;;10.93;38.03
4767;BME280;2397;53.576;9.746;2023-04-06T09:59:44;101805.41;;;10.89;37.58
4767;BME280;2397;53.576;9.746;2023-04-06T10:02:28;101794.84;;;10.89;37.00
4767;BME280;2397;53.576;9.746;2023-04-06T10:05:19;101799.84;;;10.92;37.06
4767;BME280;2397;53.576;9.746;2023-04-06T10:07:48;101792.16;;;11.00;36.27
4767;BME280;2397;53.576;9.746;2023-04-06T10:10:27;101788.34;;;11.13;37.44
4767;BME280;2397;53.576;9.746;2023-04-06T10:12:54;101793.56;;;11.24;36.59
4767;BME280;2397;53.576;9.746;2023-04-06T10:15:22;101785.75;;;11.23;36.90
4767;BME280;2397;53.576;9.746;2023-04-06T10:17:48;101784.47;;;11.38;36.54
4767;BME280;2397;53.576;9.746;2023-04-06T10:23:00;101787.34;;;11.55;35.84
4767;BME280;2397;53.576;9.746;2023-04-06T10:25:34;101775.88;;;11.66;35.88
4767;BME280;2397;53.576;9.746;2023-04-06T10:28:08;101784.56;;;11.87;35.31
4767;BME280;2397;53.576;9.746;2023-04-06T10:30:42;101790.25;;;12.12;36.61
4767;BME280;2397;53.576;9.746;2023-04-06T10:33:19;101790.00;;;12.25;35.75
4767;BME280;2397;53.576;9.746;2023-04-06T10:35:46;101781.34;;;12.32;34.74
4767;BME280;2397;53.576;9.746;2023-04-06T10:38:13;101775.66;;;12.37;35.59
4767;BME280;2397;53.576;9.746;2023-04-06T10:40:42;101767.84;;;12.45;34.51
4767;BME280;2397;53.576;9.746;2023-04-06T10:43:19;101769.13;;;12.60;33.18
4767;BME280;2397;53.576;9.746;2023-04-06T10:45:55;101770.66;;;12.72;35.42
4767;BME280;2397;53.576;9.746;2023-04-06T10:48:22;101770.50;;;12.92;33.72
4767;BME280;2397;53.576;9.746;2023-04-06T10:50:51;101760.84;;;13.20;33.35
4767;BME280;2397;53.576;9.746;2023-04-06T10:53:22;101759.44;;;13.25;31.82
4767;BME280;2397;53.576;9.746;2023-04-06T10:55:54;101760.78;;;13.39;32.43
4767;BME280;2397;53.576;9.746;2023-04-06T10:58:26;101753.88;;;13.65;32.22
4767;BME280;2397;53.576;9.746;2023-04-06T11:00:53;101755.75;;;13.82;32.17
4767;BME280;2397;53.576;9.746;2023-04-06T11:03:20;101759.78;;;13.59;30.93
4767;BME280;2397;53.576;9.746;2023-04-06T11:05:49;101753.78;;;13.84;30.94
4767;BME280;2397;53.576;9.746;2023-04-06T11:08:32;101757.63;;;13.99;31.15
4767;BME280;2397;53.576;9.746;2023-04-06T11:13:43;101745.19;;;14.27;32.29
4767;BME280;2397;53.576;9.746;2023-04-06T11:16:23;101741.91;;;14.33;32.05
4767;BME280;2397;53.576;9.746;2023-04-06T11:21:38;101749.69;;;14.17;31.10
4767;BME280;2397;53.576;9.746;2023-04-06T11:24:11;101740.19;;;14.41;30.14
4767;BME280;2397;53.576;9.746;2023-04-06T11:29:16;101730.91;;;15.06;29.60
4767;BME280;2397;53.576;9.746;2023-04-06T11:31:48;101731.66;;;15.16;29.10
4767;BME280;2397;53.576;9.746;2023-04-06T11:34:19;101737.69;;;15.43;30.07
4767;BME280;2397;53.576;9.746;2023-04-06T11:36:48;101732.75;;;15.31;29.65
4767;BME280;2397;53.576;9.746;2023-04-06T11:39:20;101730.50;;;15.44;29.93
4767;BME280;2397;53.576;9.746;2023-04-06T11:41:54;101738.66;;;15.76;29.11
4767;BME280;2397;53.576;9.746;2023-04-06T11:44:38;101731.00;;;15.39;28.94
4767;BME280;2397;53.576;9.746;2023-04-06T11:47:08;101722.72;;;15.42;28.91
4767;BME280;2397;53.576;9.746;2023-04-06T11:49:39;101727.50;;;15.72;28.27
4767;BME280;2397;53.576;9.746;2023-04-06T11:52:25;101728.59;;;15.95;28.56
4767;BME280;2397;53.576;9.746;2023-04-06T11:54:52;101726.06;;;15.94;28.13
4767;BME280;2397;53.576;9.746;2023-04-06T11:57:21;101722.22;;;15.88;28.86
4767;BME280;2397;53.576;9.746;2023-04-06T11:59:49;101716.63;;;16.07;29.08
4767;BME280;2397;53.576;9.746;2023-04-06T12:02:16;101714.72;;;16.41;27.89
4767;BME280;2397;53.576;9.746;2023-04-06T12:04:44;101709.75;;;16.54;28.87
4767;BME280;2397;53.576;9.746;2023-04-06T12:07:11;101715.75;;;16.56;28.47
4767;BME280;2397;53.576;9.746;2023-04-06T12:09:37;101720.41;;;16.46;26.36
4767;BME280;2397;53.576;9.746;2023-04-06T12:12:05;101716.91;;;16.54;26.47
4767;BME280;2397;53.576;9.746;2023-04-06T12:14:31;101705.78;;;16.01;26.25
4767;BME280;2397;53.576;9.746;2023-04-06T12:16:58;101711.31;;;16.07;25.79
4767;BME280;2397;53.576;9.746;2023-04-06T12:19:24;101710.78;;;15.96;25.55
4767;BME280;2397;53.576;9.746;2023-04-06T12:21:53;101706.91;;;16.48;27.08
4767;BME280;2397;53.576;9.746;2023-04-06T12:24:20;101705.06;;;16.48;25.94
4767;BME280;2397;53.576;9.746;2023-04-06T12:26:47;101704.09;;;16.65;25.45
4767;BME280;2397;53.576;9.746;2023-04-06T12:29:19;101710.81;;;17.24;25.76
4767;BME280;2397;53.576;9.746;2023-04-06T12:31:46;101708.34;;;17.31;25.99
4767;BME280;2397;53.576;9.746;2023-04-06T12:34:12;101708.94;;;16.62;24.91
4767;BME280;2397;53.576;9.746;2023-04-06T12:36:39;101700.06;;;16.69;25.16
4767;BME280;2397;53.576;9.746;2023-04-06T12:39:05;101706.75;;;16.65;25.97
4767;BME280;2397;53.576;9.746;2023-04-06T12:41:32;101699.31;;;17.32;25.41
4767;BME280;2397;53.576;9.746;2023-04-06T12:43:59;101698.06;;;16.96;24.33
4767;BME280;2397;53.576;9.746;2023-04-06T12:46:29;101706.03;;;17.04;24.67
4767;BME280;2397;53.576;9.746;2023-04-06T12:48:58;101697.75;;;16.83;24.53
4767;BME280;2397;53.576;9.746;2023-04-06T12:51:29;101700.69;;;17.04;25.04
4767;BME280;2397;53.576;9.746;2023-04-06T12:53:55;101695.28;;;17.36;24.29
4767;BME280;2397;53.576;9.746;2023-04-06T12:56:22;101702.28;;;17.91;24.08
4767;BME280;2397;53.576;9.746;2023-04-06T12:58:50;101690.63;;;17.46;24.63
4767;BME280;2397;53.576;9.746;2023-04-06T13:01:17;101701.09;;;17.55;23.75
4767;BME280;2397;53.576;9.746;2023-04-06T13:03:44;101687.97;;;17.30;24.17
4767;BME280;2397;53.576;9.746;2023-04-06T13:06:11;101685.03;;;17.17;24.48
4767;BME280;2397;53.576;9.746;2023-04-06T13:08:38;101692.94;;;17.57;24.94
4767;BME280;2397;53.576;9.746;2023-04-06T13:11:06;101688.44;;;17.88;25.73
4767;BME280;2397;53.576;9.746;2023-04-06T13:13:36;101679.72;;;18.47;25.89
4767;BME280;2397;53.576;9.746;2023-04-06T13:16:06;101674.16;;;18.26;23.93
4767;BME280;2397;53.576;9.746;2023-04-06T13:18:33;101673.63;;;18.08;22.90
4767;BME280;2397;53.576;9.746;2023-04-06T13:21:00;101667.75;;;18.12;22.77
4767;BME280;2397;53.576;9.746;2023-04-06T13:23:27;101665.44;;;18.32;23.46
4767;BME280;2397;53.576;9.746;2023-04-06T13:26:02;101658.34;;;18.16;23.08
4767;BME280;2397;53.576;9.746;2023-04-06T13:28:30;101659.84;;;17.66;23.78
4767;BME280;2397;53.576;9.746;2023-04-06T13:31:01;101654.72;;;17.87;24.33
4767;BME280;2397;53.576;9.746;2023-04-06T13:33:29;101658.13;;;17.73;23.38
4767;BME280;2397;53.576;9.746;2023-04-06T13:35:57;101657.31;;;18.48;23.56
4767;BME280;2397;53.576;9.746;2023-04-06T13:38:23;101654.94;;;18.08;23.18
4767;BME280;2397;53.576;9.746;2023-04-06T13:40:50;101654.78;;;18.01;23.57